Time;durP1;ratioP1;P1;durP2;ratioP2;P2;SDS_P1;SDS_P2;PMS_P1;PMS_P2;Temp;Humidity;BMP_temperature;BMP_pressure;BME280_temperature;BME280_humidity;BME280_pressure;Samples;Min_cycle;Max_cycle;Signal;HPM_P1;HPM_P2
2022/05/22 00:00:41;;;;;;;7.17;4.67;;;;;;;12.22;100.00;65454.44;5114623;28;20270;-69
2022/05/22 00:03:08;;;;;;;5.23;4.87;;;;;;;12.19;100.00;65448.50;5113378;28;20200;-69
2022/05/22 00:05:34;;;;;;;5.73;5.27;;;;;;;12.18;100.00;65454.63;5114330;28;20185;-69
2022/05/22 00:08:04;;;;;;;4.93;4.63;;;;;;;;;;5112091;28;20832;-70
2022/05/22 00:10:30;;;;;;;4.40;4.20;;;;;;;;;;5113338;28;20221;-70
2022/05/22 00:12:56;;;;;;;4.50;4.30;;;;;;;12.16;100.00;65447.22;5114124;28;20201;-70
2022/05/22 00:15:23;;;;;;;3.73;3.73;;;;;;;12.15;100.00;65438.84;5114750;28;20173;-70
2022/05/22 00:17:50;;;;;;;4.07;3.97;;;;;;;;;;5114113;28;20242;-69
2022/05/22 00:20:16;;;;;;;4.83;4.50;;;;;;;12.05;100.00;65432.97;5114208;28;20607;-69
2022/05/22 00:22:43;;;;;;;5.57;4.60;;;;;;;12.02;100.00;65434.84;5114060;28;20184;-69
2022/05/22 00:25:12;;;;;;;4.73;4.60;;;;;;;11.98;100.00;65428.34;5113293;28;20241;-70
2022/05/22 00:27:40;;;;;;;5.17;4.73;;;;;;;;;;5113705;28;20246;-70
2022/05/22 00:30:07;;;;;;;4.73;4.40;;;;;;;;;;5113969;28;20207;-70
2022/05/22 00:32:35;;;;;;;5.90;5.50;;;;;;;11.98;100.00;65427.78;5113862;28;20231;-70
2022/05/22 00:35:02;;;;;;;5.43;5.23;;;;;;;11.90;100.00;65419.47;5095625;28;20658;-70
2022/05/22 00:37:28;;;;;;;4.93;4.73;;;;;;;11.89;100.00;65423.00;5113845;28;20184;-70
2022/05/22 00:39:55;;;;;;;4.93;4.47;;;;;;;;;;5113773;28;20572;-70
2022/05/22 00:42:23;;;;;;;3.80;3.77;;;;;;;11.75;100.00;65405.41;5095493;28;20191;-70
2022/05/22 00:44:50;;;;;;;5.57;5.13;;;;;;;11.74;100.00;65402.25;5114035;28;20609;-70
2022/05/22 00:47:17;;;;;;;5.33;4.93;;;;;;;11.67;100.00;65394.47;5112826;28;20193;-70
2022/05/22 00:49:44;;;;;;;4.87;4.57;;;;;;;;;;5113858;28;20213;-69
2022/05/22 00:52:20;;;;;;;4.03;3.83;;;;;;;;;;5112487;28;20213;-69
2022/05/22 00:54:53;;;;;;;6.23;5.00;;;;;;;11.72;100.00;65405.25;5113767;28;20181;-69
2022/05/22 00:57:22;;;;;;;4.87;4.77;;;;;;;;;;5095540;28;20240;-69
2022/05/22 00:59:56;;;;;;;5.10;4.90;;;;;;;11.71;100.00;65401.50;5095366;28;20208;-69
2022/05/22 01:02:24;;;;;;;5.33;5.10;;;;;;;11.70;100.00;65395.22;5095490;28;20185;-69
2022/05/22 01:04:52;;;;;;;5.03;4.93;;;;;;;11.74;100.00;65412.09;5113567;28;20185;-69
2022/05/22 01:07:19;;;;;;;7.10;6.63;;;;;;;11.73;100.00;65398.53;5093817;28;20243;-69
2022/05/22 01:09:46;;;;;;;5.07;4.87;;;;;;;;;;5112518;28;20209;-70
2022/05/22 01:12:18;;;;;;;4.63;4.43;;;;;;;11.69;100.00;65411.75;5095153;28;20236;-69
2022/05/22 01:14:49;;;;;;;5.07;4.90;;;;;;;;;;5095300;28;20267;-69
2022/05/22 01:17:16;;;;;;;5.67;5.40;;;;;;;11.56;100.00;65387.47;5096243;28;20221;-69
2022/05/22 01:19:55;;;;;;;5.00;4.87;;;;;;;11.55;100.00;65381.72;5113379;28;20209;-70
2022/05/22 01:22:22;;;;;;;4.97;4.87;;;;;;;11.55;100.00;65381.16;5095542;28;20194;-70
2022/05/22 01:24:48;;;;;;;5.53;5.43;;;;;;;11.55;100.00;65373.91;5095155;28;20212;-70
2022/05/22 01:27:18;;;;;;;5.57;5.30;;;;;;;11.52;100.00;65375.81;5095411;28;20186;-70
2022/05/22 01:30:24;;;;;;;4.47;4.30;;;;;;;11.52;100.00;65380.44;5113897;28;20671;-70
2022/05/22 01:32:59;;;;;;;4.83;4.73;;;;;;;;;;5095023;28;20218;-70
2022/05/22 01:35:27;;;;;;;4.80;4.70;;;;;;;11.54;100.00;65380.06;5094136;28;20549;-70
2022/05/22 01:37:57;;;;;;;5.30;5.10;;;;;;;11.53;100.00;65378.94;5095535;28;20189;-70
2022/05/22 01:40:24;;;;;;;6.73;6.33;;;;;;;11.52;100.00;65388.25;5097761;28;20201;-70
2022/05/22 01:42:52;;;;;;;5.90;5.63;;;;;;;11.48;100.00;65371.34;5098834;28;20185;-70
2022/05/22 01:45:23;;;;;;;6.77;6.53;;;;;;;;;;5098804;28;20238;-69
2022/05/22 01:47:51;;;;;;;6.77;6.47;;;;;;;;;;5099073;28;20189;-69
2022/05/22 01:50:21;;;;;;;6.43;6.03;;;;;;;11.32;100.00;65355.66;5096283;28;20221;-69
2022/05/22 01:52:48;;;;;;;6.50;6.27;;;;;;;;;;5097385;28;20236;-69
2022/05/22 01:55:15;;;;;;;7.47;6.80;;;;;;;11.32;100.00;65356.22;5098536;28;20204;-69
2022/05/22 01:57:45;;;;;;;5.60;5.50;;;;;;;11.30;100.00;65354.56;5098527;28;20181;-69
2022/05/22 02:00:17;;;;;;;6.17;5.83;;;;;;;11.30;100.00;65354.56;5096740;28;20211;-69
2022/05/22 02:02:44;;;;;;;6.90;6.23;;;;;;;11.16;100.00;65341.63;5117037;28;20227;-69
2022/05/22 02:05:17;;;;;;;5.70;5.50;;;;;;;11.08;100.00;65335.34;5098494;28;20277;-69
2022/05/22 02:14:43;;;;;;;5.57;5.37;;;;;;;;;;5096702;28;20275;-69
2022/05/22 02:17:14;;;;;;;6.47;6.07;;;;;;;;;;5079755;28;20190;-69
2022/05/22 02:19:53;;;;;;;5.87;5.47;;;;;;;11.00;100.00;65321.28;5083028;28;20213;-69
2022/05/22 02:22:41;;;;;;;5.63;5.23;;;;;;;;;;5098698;28;20189;-69
2022/05/22 02:25:09;;;;;;;6.50;6.20;;;;;;;11.01;100.00;65314.59;5097402;28;20693;-69
2022/05/22 02:27:36;;;;;;;6.57;6.30;;;;;;;10.99;100.00;65320.72;5097164;28;20435;-70
2022/05/22 02:30:05;;;;;;;5.67;5.57;;;;;;;10.98;100.00;65316.47;5097247;28;20263;-70
2022/05/22 02:32:32;;;;;;;6.53;6.27;;;;;;;;;;5097789;28;20212;-69
2022/05/22 02:34:59;;;;;;;6.47;6.27;;;;;;;10.94;100.00;65330.78;5097810;28;20185;-69
2022/05/22 02:37:26;;;;;;;6.67;6.37;;;;;;;10.92;100.00;65315.56;5096053;28;20260;-69
2022/05/22 02:39:52;;;;;;;6.73;6.53;;;;;;;;;;5097805;28;20686;-69
2022/05/22 02:42:44;;;;;;;5.90;5.70;;;;;;;10.90;100.00;65315.38;5115804;28;20195;-69
2022/05/22 02:45:20;;;;;;;7.50;7.17;;;;;;;10.88;100.00;65307.97;5098229;28;20246;-69
2022/05/22 02:47:47;;;;;;;8.77;8.00;;;;;;;10.88;100.00;65313.19;5096824;28;20284;-69
2022/05/22 02:50:15;;;;;;;6.67;6.40;;;;;;;;;;5115882;28;20209;-69
2022/05/22 02:52:41;;;;;;;6.90;6.63;;;;;;;10.85;100.00;65304.66;5097203;28;20223;-69
2022/05/22 02:55:09;;;;;;;7.57;7.17;;;;;;;10.77;100.00;65295.78;5098084;28;20277;-69
2022/05/22 02:57:37;;;;;;;7.53;7.17;;;;;;;10.71;100.00;65290.22;5096568;28;20220;-69
2022/05/22 03:00:11;;;;;;;6.33;5.87;;;;;;;10.68;100.00;65291.56;5097366;28;20755;-69
2022/05/22 03:02:37;;;;;;;6.77;6.67;;;;;;;10.63;100.00;65273.59;5097453;28;20238;-69
2022/05/22 03:05:04;;;;;;;6.10;5.90;;;;;;;10.61;100.00;65279.16;5097268;28;20195;-69
2022/05/22 03:07:34;;;;;;;6.47;6.17;;;;;;;;;;5112763;28;20250;-69
2022/05/22 03:10:20;;;;;;;6.90;6.67;;;;;;;10.65;100.00;65285.66;5083255;28;20555;-69
2022/05/22 03:12:47;;;;;;;6.63;6.13;;;;;;;;;;5097062;28;20270;-69
2022/05/22 03:15:17;;;;;;;6.33;6.07;;;;;;;10.62;100.00;65282.84;5096699;28;20216;-69
2022/05/22 03:17:43;;;;;;;8.10;7.63;;;;;;;10.72;100.00;65296.56;5096119;28;20189;-69
2022/05/22 03:20:11;;;;;;;8.13;7.73;;;;;;;10.67;100.00;65285.81;5096083;28;20234;-69
2022/05/22 03:22:38;;;;;;;6.97;6.70;;;;;;;10.70;100.00;65280.78;5097240;28;20595;-69
2022/05/22 03:25:06;;;;;;;6.60;6.47;;;;;;;10.71;100.00;65282.44;5094959;28;20196;-69
2022/05/22 03:27:33;;;;;;;6.70;6.30;;;;;;;10.65;100.00;65283.59;5095860;28;20542;-69
2022/05/22 03:30:00;;;;;;;6.00;5.70;;;;;;;10.55;100.00;65284.94;5096718;28;20211;-69
2022/05/22 03:32:28;;;;;;;6.13;5.67;;;;;;;;;;5115113;28;20178;-69
2022/05/22 03:34:57;;;;;;;7.40;6.80;;;;;;;10.58;100.00;65283.06;5097219;28;20279;-69
2022/05/22 03:37:24;;;;;;;7.37;6.83;;;;;;;10.65;100.00;65288.25;5095016;28;20666;-70
2022/05/22 03:39:54;;;;;;;6.93;6.50;;;;;;;10.64;100.00;65274.69;5115054;28;20231;-69
2022/05/22 03:42:21;;;;;;;7.13;6.93;;;;;;;;;;5114780;28;20189;-69
2022/05/22 03:44:47;;;;;;;6.83;6.33;;;;;;;10.69;100.00;65288.03;5096547;28;20613;-69
2022/05/22 03:47:14;;;;;;;7.00;6.60;;;;;;;10.70;100.00;65291.16;5093898;28;20196;-70
2022/05/22 03:50:09;;;;;;;6.97;6.47;;;;;;;10.57;100.00;65282.50;5096473;28;20747;-69
2022/05/22 03:52:38;;;;;;;7.33;6.57;;;;;;;10.56;100.00;65278.81;5096169;28;20201;-69
2022/05/22 03:55:12;;;;;;;7.33;6.80;;;;;;;10.61;100.00;65281.19;5096636;28;20217;-69
2022/05/22 03:57:40;;;;;;;7.10;6.47;;;;;;;10.62;100.00;65282.84;5094647;28;20193;-70
2022/05/22 04:00:10;;;;;;;6.33;6.17;;;;;;;10.64;100.00;65281.91;5095968;28;20258;-69
2022/05/22 04:02:41;;;;;;;8.47;6.97;;;;;;;;;;5114323;28;20165;-69
2022/05/22 04:05:09;;;;;;;6.97;6.77;;;;;;;10.66;100.00;65289.34;5094999;28;20284;-70
2022/05/22 04:07:40;;;;;;;7.73;7.20;;;;;;;;;;5095331;28;20193;-70
2022/05/22 04:10:09;;;;;;;7.87;7.13;;;;;;;10.79;100.00;65300.59;5095362;28;20266;-70
2022/05/22 04:12:38;;;;;;;7.30;7.10;;;;;;;10.81;100.00;65310.59;5095924;28;20197;-70
2022/05/22 04:15:08;;;;;;;7.20;7.00;;;;;;;10.78;100.00;65297.44;5095936;28;20203;-70
2022/05/22 04:17:35;;;;;;;6.20;6.10;;;;;;;;;;5095749;28;20193;-70
2022/05/22 04:20:12;;;;;;;7.63;7.30;;;;;;;10.79;100.00;65303.19;5095930;28;20221;-70
2022/05/22 04:25:26;;;;;;;7.90;7.50;;;;;;;10.87;100.00;65304.84;5095771;28;20272;-69
2022/05/22 04:27:54;;;;;;;7.77;7.27;;;;;;;10.88;100.00;65324.13;5093413;28;20193;-69
2022/05/22 04:30:21;;;;;;;8.13;7.40;;;;;;;10.94;100.00;65312.03;5112553;28;20213;-69
2022/05/22 04:32:56;;;;;;;7.03;6.83;;;;;;;10.98;100.00;65322.22;5095726;28;20214;-69
2022/05/22 04:35:23;;;;;;;8.47;7.90;;;;;;;10.99;100.00;65318.13;5096505;28;20198;-69
2022/05/22 04:37:50;;;;;;;7.80;7.60;;;;;;;;;;5090592;28;20243;-70
2022/05/22 04:40:16;;;;;;;7.37;7.07;;;;;;;10.95;100.00;65315.75;5095611;28;20293;-69
2022/05/22 04:42:43;;;;;;;8.03;7.50;;;;;;;;;;5095564;28;20276;-69
2022/05/22 04:45:11;;;;;;;7.10;6.80;;;;;;;11.07;100.00;65331.63;5095604;28;20201;-70
2022/05/22 04:47:57;;;;;;;7.33;7.13;;;;;;;;;;5111584;28;20201;-69
2022/05/22 04:50:46;;;;;;;7.97;7.33;;;;;;;11.18;100.00;65348.47;5099191;28;20710;-70
2022/05/22 04:53:35;;;;;;;8.20;7.87;;;;;;;;;;5095413;28;20217;-69
2022/05/22 04:56:21;;;;;;;8.93;8.17;;;;;;;11.31;100.00;65352.50;5112662;28;20197;-69
2022/05/22 04:58:51;;;;;;;7.63;7.30;;;;;;;;;;5094661;28;20662;-69
2022/05/22 05:01:20;;;;;;;8.20;7.60;;;;;;;11.40;100.00;65367.69;5094614;28;20197;-70
2022/05/22 05:04:07;;;;;;;8.07;7.57;;;;;;;;;;5095365;28;20252;-69
2022/05/22 05:06:47;;;;;;;8.57;7.60;;;;;;;11.43;100.00;65371.03;5095991;28;20246;-69
2022/05/22 05:09:49;;;;;;;8.37;7.97;;;;;;;;;;5070418;28;20307;-70
2022/05/22 05:12:48;;;;;;;9.60;8.73;;;;;;;;;;5054961;28;20331;-69
2022/05/22 05:15:28;;;;;;;9.27;8.90;;;;;;;;;;5078973;28;20192;-69
2022/05/22 05:18:03;;;;;;;9.00;8.00;;;;;;;11.64;100.00;65391.16;5083665;28;20184;-70
2022/05/22 05:20:33;;;;;;;7.63;7.30;;;;;;;11.70;100.00;65407.66;5099534;28;20646;-70
2022/05/22 05:23:04;;;;;;;9.00;8.40;;;;;;;11.73;100.00;65413.59;5099184;28;20189;-70
2022/05/22 05:25:41;;;;;;;9.07;8.53;;;;;;;11.79;100.00;65410.41;5099243;28;20219;-70
2022/05/22 05:28:07;;;;;;;9.23;8.53;;;;;;;11.76;100.00;65396.09;5096977;28;20197;-70
2022/05/22 05:30:34;;;;;;;11.73;9.10;;;;;;;11.78;100.00;65404.06;5098981;28;20239;-70
2022/05/22 05:33:01;;;;;;;8.87;8.07;;;;;;;11.82;100.00;65413.75;5099028;28;20736;-69
2022/05/22 05:35:54;;;;;;;9.23;8.43;;;;;;;11.75;100.00;65408.00;5116649;28;20284;-69
2022/05/22 05:38:37;;;;;;;10.43;7.90;;;;;;;11.76;100.00;65404.47;5088768;28;20538;-70
2022/05/22 05:41:39;;;;;;;8.30;7.57;;;;;;;11.78;100.00;65406.13;5078894;28;20192;-69
2022/05/22 05:44:06;;;;;;;13.07;8.13;;;;;;;11.81;100.00;65415.25;5096984;28;20184;-69
2022/05/22 05:46:44;;;;;;;7.57;7.33;;;;;;;11.85;100.00;65413.91;5094709;28;20195;-70
2022/05/22 05:49:12;;;;;;;7.90;7.33;;;;;;;11.91;100.00;65412.22;5097960;28;20248;-70
2022/05/22 05:51:42;;;;;;;8.33;7.83;;;;;;;11.94;100.00;65421.31;5097970;28;20239;-70
2022/05/22 05:54:08;;;;;;;8.30;7.43;;;;;;;;;;5099123;28;20212;-70
2022/05/22 05:57:13;;;;;;;6.83;6.47;;;;;;;12.15;100.00;65461.72;5098691;28;20684;-71
2022/05/22 05:59:45;;;;;;;8.00;7.47;;;;;;;12.24;100.00;65454.03;5095215;28;20216;-70
2022/05/22 06:02:16;;;;;;;6.90;6.70;;;;;;;12.36;100.00;65467.38;5078466;28;20224;-70
2022/05/22 06:04:43;;;;;;;7.40;6.90;;;;;;;;;;5078411;28;20193;-69
2022/05/22 06:07:10;;;;;;;7.47;6.47;;;;;;;;;;5078101;28;20194;-69
2022/05/22 06:09:36;;;;;;;8.23;7.87;;;;;;;;;;5078459;28;20214;-69
2022/05/22 06:12:21;;;;;;;8.33;7.80;;;;;;;12.81;100.00;65508.41;5112557;28;20208;-69
2022/05/22 06:15:03;;;;;;;7.23;6.93;;;;;;;12.88;100.00;65526.03;5098174;28;20217;-69
2022/05/22 06:17:32;;;;;;;7.40;7.10;;;;;;;;;;5098027;28;20197;-70
2022/05/22 06:19:59;;;;;;;7.60;7.00;;;;;;;12.99;100.00;65535.09;5098671;28;20209;-69
2022/05/22 06:22:36;;;;;;;6.43;6.23;;;;;;;13.06;100.00;65546.03;5098930;28;20589;-69
2022/05/22 06:25:06;;;;;;;7.77;7.43;;;;;;;;;;5088831;28;20273;-69
2022/05/22 06:27:45;;;;;;;7.60;7.10;;;;;;;;;;5096462;28;20254;-69
2022/05/22 06:30:32;;;;;;;7.33;6.07;;;;;;;;;;5095174;28;20213;-69
2022/05/22 06:33:21;;;;;;;6.87;6.33;;;;;;;;;;5092938;28;20234;-70
2022/05/22 06:36:13;;;;;;;6.40;6.10;;;;;;;13.06;100.00;65545.47;5096570;28;20193;-70
2022/05/22 06:41:58;;;;;;;7.53;7.13;;;;;;;13.16;100.00;65548.78;5094363;28;20197;-69
2022/05/22 06:44:42;;;;;;;8.70;8.13;;;;;;;;;;5078033;28;20265;-69
2022/05/22 06:47:29;;;;;;;10.33;6.60;;;;;;;13.52;100.00;65596.06;5095869;28;20184;-69
2022/05/22 06:50:20;;;;;;;9.10;8.37;;;;;;;;;;5074508;28;20319;-70
2022/05/22 06:52:56;;;;;;;7.73;6.90;;;;;;;13.82;100.00;65621.00;5096519;28;20284;-69
2022/05/22 06:55:45;;;;;;;8.03;7.63;;;;;;;;;;5093182;28;20596;-70
2022/05/22 06:58:30;;;;;;;8.10;7.40;;;;;;;14.08;100.00;65654.59;5114668;28;20200;-69
2022/05/22 07:01:15;;;;;;;8.10;7.53;;;;;;;;;;5095580;28;20612;-69
2022/05/22 07:04:02;;;;;;;7.20;6.87;;;;;;;14.27;100.00;65669.94;5105892;28;20189;-69
2022/05/22 07:06:51;;;;;;;6.57;6.37;;;;;;;14.28;98.99;65676.81;5114289;28;20821;-69
2022/05/22 07:09:36;;;;;;;7.10;6.30;;;;;;;;;;5115645;28;20239;-70
2022/05/22 07:12:11;;;;;;;8.00;6.50;;;;;;;14.33;99.74;65682.38;5122213;28;20173;-69
2022/05/22 07:14:42;;;;;;;9.43;5.83;;;;;;;;;;5115667;28;20659;-70
2022/05/22 07:17:12;;;;;;;6.20;5.73;;;;;;;;;;5096999;28;20676;-70
2022/05/22 07:19:45;;;;;;;5.67;5.10;;;;;;;14.53;100.00;65704.09;5095689;28;20201;-70
2022/05/22 07:22:31;;;;;;;5.93;5.80;;;;;;;14.65;99.23;65716.88;5078159;28;20193;-69
2022/05/22 07:25:34;;;;;;;5.90;5.50;;;;;;;;;;5030932;28;20202;-70
2022/05/22 07:28:03;;;;;;;5.83;5.30;;;;;;;14.99;95.82;65748.38;5100272;28;20193;-69
2022/05/22 07:30:49;;;;;;;4.93;4.53;;;;;;;15.10;92.48;65765.84;5115289;28;20775;-70
2022/05/22 07:33:36;;;;;;;5.23;5.10;;;;;;;14.99;92.64;65753.59;5114345;28;20590;-69
2022/05/22 07:36:16;;;;;;;4.50;4.40;;;;;;;15.03;93.32;65758.06;5095874;28;20189;-69
2022/05/22 07:39:10;;;;;;;5.83;5.43;;;;;;;15.18;92.68;65769.50;5096567;28;20587;-70
2022/05/22 07:42:00;;;;;;;4.27;4.17;;;;;;;15.28;91.88;65788.47;5096388;28;20186;-70
2022/05/22 07:44:32;;;;;;;5.10;4.67;;;;;;;15.46;90.51;65807.41;5094014;28;20231;-69
2022/05/22 07:47:15;;;;;;;4.70;4.60;;;;;;;;;;5093123;28;20190;-69
2022/05/22 07:52:49;;;;;;;7.50;4.20;;;;;;;;;;5092166;28;20300;-69
2022/05/22 07:55:41;;;;;;;5.70;3.53;;;;;;;15.65;88.14;65825.97;5107582;28;20220;-69
2022/05/22 07:58:21;;;;;;;4.00;3.70;;;;;;;15.77;87.40;65834.09;5114801;28;20177;-69
2022/05/22 08:01:09;;;;;;;5.10;3.30;;;;;;;;;;5081537;28;20203;-69
2022/05/22 08:03:54;;;;;;;4.23;3.83;;;;;;;15.90;84.83;65853.25;5113818;28;20234;-69
2022/05/22 08:06:39;;;;;;;7.07;3.73;;;;;;;;;;5114979;28;20181;-69
2022/05/22 08:09:18;;;;;;;3.67;3.43;;;;;;;;;;5095829;28;20217;-70
2022/05/22 08:11:48;;;;;;;4.07;3.97;;;;;;;16.08;87.07;65865.44;5094238;28;20193;-69
2022/05/22 08:14:16;;;;;;;6.80;3.63;;;;;;;16.18;85.03;65886.50;5094961;28;20201;-69
2022/05/22 08:16:43;;;;;;;8.00;4.57;;;;;;;;;;5095261;28;20563;-69
2022/05/22 08:19:18;;;;;;;4.70;4.30;;;;;;;;;;5095851;28;20211;-70
2022/05/22 08:22:03;;;;;;;4.73;4.33;;;;;;;16.21;81.91;65887.75;5114487;28;20231;-69
2022/05/22 08:24:48;;;;;;;3.57;3.37;;;;;;;16.25;82.72;65894.28;5114284;28;20176;-69
2022/05/22 08:27:15;;;;;;;3.53;3.10;;;;;;;16.32;81.75;65891.59;5095758;28;20246;-69
2022/05/22 08:29:42;;;;;;;3.40;3.13;;;;;;;;;;5095713;28;20639;-70
2022/05/22 08:32:08;;;;;;;3.83;2.87;;;;;;;16.55;81.86;65924.53;5096301;28;20588;-69
2022/05/22 08:34:35;;;;;;;3.87;3.67;;;;;;;16.61;80.25;65925.44;5113847;28;20247;-69
2022/05/22 08:37:01;;;;;;;6.47;3.27;;;;;;;16.63;80.62;65936.06;5114114;28;20189;-69
2022/05/22 08:39:28;;;;;;;3.37;3.27;;;;;;;16.64;79.96;65934.56;5112727;28;20233;-69
2022/05/22 08:41:56;;;;;;;7.77;3.40;;;;;;;;;;5113071;28;20181;-70
2022/05/22 08:44:29;;;;;;;4.37;3.37;;;;;;;16.73;78.35;65938.81;5107961;28;20217;-70
2022/05/22 08:47:03;;;;;;;7.40;3.07;;;;;;;16.64;78.63;65929.31;5113510;28;20260;-69
2022/05/22 08:49:39;;;;;;;2.90;2.87;;;;;;;16.74;78.42;65945.72;5113733;28;20247;-69
2022/05/22 08:52:12;;;;;;;2.73;2.63;;;;;;;;;;5113378;28;20232;-70
2022/05/22 08:54:42;;;;;;;2.63;2.53;;;;;;;;;;5113684;28;20192;-70
2022/05/22 09:00:37;;;;;;;2.80;2.57;;;;;;;17.08;80.01;65977.28;5089458;28;20312;-69
2022/05/22 09:03:14;;;;;;;7.10;2.80;;;;;;;17.31;78.60;66002.91;5113620;28;20550;-69
2022/05/22 09:05:41;;;;;;;3.77;3.67;;;;;;;;;;5114178;28;20176;-69
2022/05/22 09:08:45;;;;;;;4.00;3.90;;;;;;;17.25;75.51;65996.22;5113873;28;20205;-69
2022/05/22 09:12:08;;;;;;;4.53;4.13;;;;;;;17.23;76.57;65993.44;5111043;28;20594;-69
2022/05/22 09:14:42;;;;;;;4.90;4.43;;;;;;;17.32;76.43;66009.28;5069117;28;20259;-69
2022/05/22 09:17:17;;;;;;;3.60;3.53;;;;;;;17.44;77.83;66024.72;5113788;28;20173;-69
2022/05/22 09:20:13;;;;;;;4.30;3.90;;;;;;;17.53;74.27;66024.25;5113455;28;20636;-69
2022/05/22 09:23:06;;;;;;;4.40;4.20;;;;;;;17.67;72.43;66039.31;5113766;28;20201;-69
2022/05/22 09:25:53;;;;;;;5.23;4.73;;;;;;;;;;5113411;28;20534;-69
2022/05/22 09:28:26;;;;;;;3.83;3.67;;;;;;;;;;5113680;28;20234;-69
2022/05/22 09:31:34;;;;;;;4.20;3.97;;;;;;;17.88;74.37;66065.38;5113322;28;20774;-69
2022/05/22 09:34:06;;;;;;;4.03;3.83;;;;;;;;;;5113487;28;20582;-69
2022/05/22 09:36:43;;;;;;;3.10;3.00;;;;;;;;;;5113569;28;20257;-69
2022/05/22 09:39:35;;;;;;;7.13;4.63;;;;;;;;;;5097832;28;20209;-69
2022/05/22 09:42:13;;;;;;;3.53;3.33;;;;;;;;;;5113204;28;20241;-69
2022/05/22 09:45:13;;;;;;;3.90;3.60;;;;;;;18.07;73.46;66086.03;5113190;28;20212;-69
2022/05/22 09:47:51;;;;;;;4.13;3.80;;;;;;;18.18;74.06;66097.72;5113343;28;20164;-69
2022/05/22 09:50:56;;;;;;;4.07;3.87;;;;;;;18.21;75.34;66105.78;5112946;28;20209;-69
2022/05/22 09:53:32;;;;;;;4.20;4.03;;;;;;;;;;5113684;28;20234;-69
2022/05/22 09:56:30;;;;;;;4.00;3.87;;;;;;;18.19;72.66;66098.84;5113103;28;20212;-69
2022/05/22 09:59:25;;;;;;;4.57;3.60;;;;;;;18.18;73.82;66103.00;5090238;28;20220;-70
2022/05/22 10:01:54;;;;;;;4.90;4.03;;;;;;;;;;5116870;28;20204;-69
2022/05/22 10:04:23;;;;;;;4.63;4.33;;;;;;;;;;5117325;28;20185;-69
2022/05/22 10:07:06;;;;;;;8.80;3.87;;;;;;;18.30;74.77;66111.13;5117005;28;20213;-69
2022/05/22 10:09:41;;;;;;;6.77;4.53;;;;;;;;;;5116993;28;20698;-69
2022/05/22 10:12:26;;;;;;;4.30;4.00;;;;;;;18.32;72.65;66118.63;5116907;28;20624;-69
2022/05/22 10:15:50;;;;;;;5.53;5.13;;;;;;;18.36;71.51;66123.09;5116466;28;20216;-69
2022/05/22 10:18:24;;;;;;;7.00;4.67;;;;;;;18.52;72.04;66139.81;5117003;28;20191;-69
2022/05/22 10:21:00;;;;;;;5.00;4.80;;;;;;;18.62;70.96;66153.59;5116472;28;20243;-70
2022/05/22 10:23:35;;;;;;;4.47;4.27;;;;;;;18.79;71.08;66162.09;5116434;28;20181;-70
2022/05/22 10:26:25;;;;;;;5.33;4.17;;;;;;;;;;5116303;28;20216;-70
2022/05/22 10:29:02;;;;;;;5.80;5.00;;;;;;;18.83;69.85;66168.63;5103565;28;20239;-70
2022/05/22 10:31:39;;;;;;;4.60;4.30;;;;;;;18.77;68.48;66159.28;5108093;28;20719;-71
2022/05/22 10:34:33;;;;;;;5.60;5.20;;;;;;;18.66;67.47;66087.09;5113019;28;20247;-70
2022/05/22 10:37:03;;;;;;;4.53;4.23;;;;;;;;;;5116180;28;20205;-70
2022/05/22 10:39:29;;;;;;;5.00;4.80;;;;;;;;;;5097159;28;20247;-71
2022/05/22 10:45:04;;;;;;;4.47;4.10;;;;;;;18.62;68.89;66146.28;5098865;28;20622;-70
2022/05/22 10:47:33;;;;;;;7.97;5.17;;;;;;;18.82;68.90;66165.44;5116173;28;20213;-70
2022/05/22 10:50:00;;;;;;;7.77;4.50;;;;;;;;;;5113135;28;20219;-70
2022/05/22 10:52:32;;;;;;;5.00;4.67;;;;;;;;;;5114028;28;20185;-70
2022/05/22 10:55:01;;;;;;;3.97;3.83;;;;;;;18.79;70.72;66170.00;5108939;28;20185;-70
2022/05/22 10:57:31;;;;;;;4.80;4.40;;;;;;;;;;5115728;28;20686;-70
2022/05/22 11:00:10;;;;;;;4.60;4.30;;;;;;;18.84;69.85;66175.00;5115596;28;20209;-69
2022/05/22 11:02:37;;;;;;;5.17;4.87;;;;;;;;;;5113946;28;20372;-70
2022/05/22 11:05:14;;;;;;;5.03;4.63;;;;;;;;;;5114671;28;20211;-70
2022/05/22 11:07:46;;;;;;;4.03;3.93;;;;;;;18.90;69.94;66184.88;5113656;28;20221;-69
2022/05/22 11:10:17;;;;;;;4.43;4.03;;;;;;;;;;5114342;28;20266;-70
2022/05/22 11:12:44;;;;;;;4.20;4.03;;;;;;;18.91;69.80;66178.09;5114586;28;20271;-70
2022/05/22 11:15:24;;;;;;;3.73;3.53;;;;;;;;;;5113656;28;20750;-70
2022/05/22 11:18:10;;;;;;;4.90;4.50;;;;;;;;;;5108414;28;20617;-71
2022/05/22 11:20:43;;;;;;;5.67;5.47;;;;;;;;;;5108010;28;20209;-71
2022/05/22 11:23:37;;;;;;;5.40;4.93;;;;;;;18.70;67.87;66159.94;5110783;28;20193;-70
2022/05/22 11:26:19;;;;;;;6.27;5.73;;;;;;;18.60;70.94;66148.75;5114608;28;20181;-70
2022/05/22 11:28:56;;;;;;;5.37;5.07;;;;;;;18.50;71.25;66140.22;5114966;28;20626;-69
2022/05/22 11:31:48;;;;;;;5.63;5.40;;;;;;;18.53;71.54;66135.69;5115361;28;20634;-69
2022/05/22 11:34:37;;;;;;;6.77;6.27;;;;;;;18.59;71.00;66142.38;5115237;28;20176;-69
2022/05/22 11:37:22;;;;;;;7.10;5.83;;;;;;;;;;5115209;28;20184;-69
2022/05/22 11:39:58;;;;;;;5.33;4.93;;;;;;;18.54;68.45;66134.72;5115163;28;20288;-69
2022/05/22 11:42:30;;;;;;;9.83;4.57;;;;;;;;;;5115138;28;20212;-69
2022/05/22 11:45:02;;;;;;;5.23;4.87;;;;;;;;;;5115310;28;20209;-69
2022/05/22 11:47:38;;;;;;;5.07;4.73;;;;;;;;;;5114768;28;20263;-69
2022/05/22 11:50:32;;;;;;;5.30;5.00;;;;;;;18.83;67.05;66182.34;5114670;28;20224;-69
2022/05/22 11:53:23;;;;;;;7.67;4.30;;;;;;;;;;5115239;28;20173;-69
2022/05/22 11:55:52;;;;;;;5.00;4.60;;;;;;;;;;5114505;28;20283;-69
2022/05/22 11:58:21;;;;;;;5.20;4.73;;;;;;;;;;5115181;28;20624;-69
2022/05/22 12:01:06;;;;;;;6.57;4.80;;;;;;;;;;5115548;28;20730;-69
2022/05/22 12:04:15;;;;;;;5.47;5.13;;;;;;;19.10;67.05;66204.03;5114760;28;20177;-69
2022/05/22 12:07:00;;;;;;;5.10;4.80;;;;;;;;;;5114711;28;20222;-69
2022/05/22 12:09:36;;;;;;;6.23;4.90;;;;;;;19.13;66.35;66199.47;5114506;28;20247;-69
2022/05/22 12:12:10;;;;;;;5.57;5.17;;;;;;;19.15;67.27;66209.63;5114607;28;20204;-69
2022/05/22 12:14:43;;;;;;;5.00;4.80;;;;;;;;;;5110441;28;20245;-69
2022/05/22 12:17:28;;;;;;;4.93;4.60;;;;;;;19.29;67.50;66219.44;5110713;28;20217;-69
2022/05/22 12:20:01;;;;;;;4.40;4.30;;;;;;;;;;5110331;28;20711;-69
2022/05/22 12:25:16;;;;;;;4.83;4.63;;;;;;;;;;5112461;28;20602;-69
2022/05/22 12:27:44;;;;;;;4.87;4.47;;;;;;;19.27;66.69;66217.19;5107524;28;20204;-72
2022/05/22 12:30:16;;;;;;;4.83;4.53;;;;;;;;;;5113310;28;20255;-69
2022/05/22 12:32:44;;;;;;;4.47;4.43;;;;;;;;;;5110722;28;20292;-69
2022/05/22 12:35:13;;;;;;;5.43;5.03;;;;;;;19.44;65.42;66233.56;5109120;28;20232;-69
2022/05/22 12:37:49;;;;;;;4.30;3.97;;;;;;;19.46;65.32;66243.69;5108969;28;20216;-70
2022/05/22 12:40:19;;;;;;;4.67;4.47;;;;;;;19.50;66.37;66250.78;5107773;28;20240;-70
2022/05/22 12:42:52;;;;;;;5.87;5.03;;;;;;;19.53;64.68;66251.50;5106844;28;20250;-69
2022/05/22 12:45:18;;;;;;;4.30;4.10;;;;;;;;;;5114170;28;20177;-69
2022/05/22 12:47:48;;;;;;;4.10;3.80;;;;;;;19.45;64.92;66242.00;5113867;28;20277;-69
2022/05/22 12:50:25;;;;;;;4.53;4.23;;;;;;;;;;5113657;28;20241;-69
2022/05/22 12:52:53;;;;;;;5.03;4.90;;;;;;;19.54;64.98;66246.78;5113668;28;20193;-68
2022/05/22 12:55:32;;;;;;;5.00;4.70;;;;;;;19.66;66.28;66259.66;5113913;28;20297;-69
2022/05/22 12:57:59;;;;;;;5.00;4.90;;;;;;;;;;5114045;28;20173;-69
2022/05/22 13:00:38;;;;;;;4.47;4.10;;;;;;;19.63;65.54;66264.22;5113626;28;20213;-69
2022/05/22 13:03:16;;;;;;;4.73;4.43;;;;;;;19.63;66.93;66253.69;5113622;28;20201;-69
2022/05/22 13:05:55;;;;;;;5.23;4.93;;;;;;;19.56;64.41;66254.28;5102727;28;20213;-70
2022/05/22 13:08:37;;;;;;;5.03;4.63;;;;;;;;;;5110026;28;20202;-69
2022/05/22 13:11:12;;;;;;;4.77;4.47;;;;;;;19.64;64.62;66257.97;5112350;28;20694;-69
2022/05/22 13:13:58;;;;;;;4.93;4.50;;;;;;;;;;5095239;28;20200;-69
2022/05/22 13:16:46;;;;;;;5.83;5.27;;;;;;;19.77;64.49;66280.41;5111583;28;20292;-69
2022/05/22 13:19:24;;;;;;;5.30;4.70;;;;;;;19.86;64.10;66281.44;5113622;28;20545;-69
2022/05/22 13:21:52;;;;;;;4.40;4.20;;;;;;;19.87;65.06;66279.94;5112487;28;20223;-69
2022/05/22 13:24:31;;;;;;;9.83;4.10;;;;;;;19.89;63.42;66285.38;5111447;28;20250;-69
2022/05/22 13:27:02;;;;;;;5.07;4.80;;;;;;;;;;5112124;28;20778;-69
2022/05/22 13:29:45;;;;;;;5.53;5.43;;;;;;;20.08;63.15;66313.41;5111433;28;20240;-70
2022/05/22 13:32:26;;;;;;;5.53;5.10;;;;;;;20.04;64.58;66310.03;5113391;28;20215;-69